Aeroporto :
LOGIN :

Iscrizione | Disclaimer

   EN    FR    IT 

 










Sommario :    VFR   VFR Marginale   IFR   IFR Intensivo   IFR Molto Intensivo
Visibilità : 
Base nubi : 
>= 8 km
>= 3000ft
5 / 8 km
1000 / 3000 ft
1500m / 5 km
500 / 1000 ft
800 / 1500m
200 / 500 ft
< 800m
< 200 ft
Simboli :   Temporali  Nebbia  Neve Forte  Precipitazioni Forti  Vento > 20 kt
SIGMETs :   Varie  Temporali  Ghiacco  Turbolenza  Onda orograficha  Ceneri Vulcaniche






- Altitudine del aeroporto : 1306 ft
- Codice IATA : ACH


LSZR - Alten Rhein

ULTIMO METAR :
  • 232050Z AUTO 27014G24KT 9999 BKN065 16/04 Q1023

METARs OBSOLETI :
  • 232020Z AUTO 27013KT 9999 BKN065 16/04 Q1023
  • 231950Z AUTO 27012KT 9999 BKN065 15/04 Q1023
  • 231920Z 26012KT 220V310 9999 SCT065 17/03 Q1023 NOSIG RMK L
  • 231850Z 26012KT 220V310 CAVOK 18/04 Q1023 NOSIG RMK L
  • 231820Z 26012KT 220V310 CAVOK 17/04 Q1023 NOSIG RMK L

TAF TAF LSZR
Valido dal 23 a 15 ore il 24 a 00 ore UTC


231425Z 2315/2324 26010KT 9999 FEW065
BECMG 2316/2319 26013G28KT
ATIS : +41 71 858 51 66



MetMap, La meteo Aeronautica in un colpo d'occhio ! - Copyright ORBIFLY Dicembre 2007 - Disclaimer

ORBIFLY MET'MAP TEAM :

Programmazione e sviluppo : Alexandra Zaïnal
Concezione : Baudouin d'Aumeries
Aiuto per la programmazione : Marc-Olivier Méhu
Supporto tecnico e logistico : Manuel Goepfert
Aiuto per la traduzione : Arnaldo La Scala

Contatto : metmap@orbifly.com




FONTI E CREDITI :

   NOAA